Maryland Heights, Missouri
Current Conditions -  °F | °C
As of 1:51 PM on Monday 24 Nov 2014 (Local Time) from KSTL Reporting Station
Overcast Overcast  
Wind Chill:   Ceiling: 3700
Heat Index:   Visibility: 10mi
Dew Point: -3°   Wind: 23mph
Humidity: 57%   Direction: 270°W
Pressure: 29.75"   Gusts: 31mph
Location:  38.72°N, 90.44°W
Report Text: KSTL 241951Z 27020G27KT 10SM OVC037 05/M03 A2975 RMK AO2 PK WND 26036/1912 SLP078 T00501028
Loading
Personal Weather Stations






























Interactive Weather Map New forecast layout! Learn more

10-Day Weather Forecast

Advertisements
Track Severe Weather on mobile